createdAt,value
2022-12-17T00:02:56.833Z,10.37
2022-12-17T00:06:01.159Z,10.77
2022-12-17T00:09:05.083Z,12.53
2022-12-17T00:15:13.664Z,11.87
2022-12-17T00:18:23.153Z,11.70
2022-12-17T00:21:28.145Z,10.70
2022-12-17T00:24:32.067Z,11.77
2022-12-17T00:30:39.738Z,15.00
2022-12-17T00:33:43.417Z,11.80
2022-12-17T00:36:51.614Z,10.75
2022-12-17T00:39:59.248Z,10.27
2022-12-17T00:43:05.501Z,10.87
2022-12-17T00:46:09.878Z,10.70
2022-12-17T00:49:13.464Z,10.00
2022-12-17T00:55:21.119Z,10.90
2022-12-17T00:58:25.092Z,11.30
2022-12-17T01:01:28.859Z,10.63
2022-12-17T01:04:43.834Z,10.27
2022-12-17T01:07:48.774Z,10.60
2022-12-17T01:10:52.728Z,9.95
2022-12-17T01:13:56.699Z,10.00
2022-12-17T01:17:00.437Z,12.00
2022-12-17T01:20:05.336Z,12.53
2022-12-17T01:26:15.490Z,9.45
2022-12-17T01:29:19.221Z,12.40
2022-12-17T01:35:27.139Z,12.00
2022-12-17T01:38:32.997Z,11.18
2022-12-17T01:41:38.215Z,8.97
2022-12-17T01:45:03.460Z,9.57
2022-12-17T01:48:27.528Z,10.30
2022-12-17T01:51:33.495Z,10.33
2022-12-17T01:54:38.384Z,9.90
2022-12-17T01:57:44.043Z,10.17
2022-12-17T02:00:48.050Z,10.60
2022-12-17T02:07:02.545Z,9.50
2022-12-17T02:10:38.534Z,10.03
2022-12-17T02:13:51.661Z,11.63
2022-12-17T02:17:02.099Z,12.67
2022-12-17T02:20:16.270Z,10.93
2022-12-17T02:23:32.634Z,10.07
2022-12-17T02:27:08.214Z,9.70
2022-12-17T02:30:20.744Z,11.53
2022-12-17T02:33:26.072Z,12.10
2022-12-17T02:36:29.776Z,12.70
2022-12-17T02:39:33.540Z,9.85
2022-12-17T02:42:41.670Z,11.27
2022-12-17T02:45:47.142Z,11.10
2022-12-17T02:48:50.851Z,11.00
2022-12-17T02:51:55.338Z,10.30
2022-12-17T02:54:59.384Z,11.90
2022-12-17T02:58:03.302Z,11.33
2022-12-17T03:01:07.177Z,11.65
2022-12-17T03:04:12.832Z,11.50
2022-12-17T03:07:16.545Z,14.43
2022-12-17T03:10:20.615Z,10.95
2022-12-17T03:13:24.336Z,12.57
2022-12-17T03:16:37.809Z,11.38
2022-12-17T03:19:42.268Z,9.82
2022-12-17T03:22:47.071Z,12.10
2022-12-17T03:25:50.885Z,10.73
2022-12-17T03:28:54.804Z,11.07
2022-12-17T03:35:02.441Z,9.18
2022-12-17T03:41:10.204Z,10.00
2022-12-17T03:47:18.063Z,8.93
2022-12-17T03:50:22.954Z,9.93
2022-12-17T03:53:26.636Z,8.30
2022-12-17T03:56:30.532Z,8.90
2022-12-17T03:59:34.240Z,8.02
2022-12-17T04:02:38.163Z,8.98
2022-12-17T04:05:42.406Z,9.57
2022-12-17T04:08:46.864Z,10.60
2022-12-17T04:11:50.932Z,14.50
2022-12-17T04:14:54.826Z,7.87
2022-12-17T04:17:58.671Z,10.03
2022-12-17T04:21:02.822Z,9.37
2022-12-17T04:27:10.474Z,8.93
2022-12-17T04:30:14.511Z,12.20
2022-12-17T04:33:18.328Z,9.00
2022-12-17T04:36:22.221Z,9.50
2022-12-17T04:39:25.983Z,10.03
2022-12-17T04:48:38.247Z,9.35
2022-12-17T04:51:43.030Z,10.67
2022-12-17T04:54:46.777Z,10.63
2022-12-17T04:57:50.698Z,9.67
2022-12-17T05:03:59.117Z,8.65
2022-12-17T05:07:03.073Z,8.33
2022-12-17T05:10:07.325Z,11.17
2022-12-17T05:13:18.488Z,9.67
2022-12-17T05:16:22.349Z,8.67
2022-12-17T05:22:33.896Z,8.70
2022-12-17T05:28:41.805Z,9.73
2022-12-17T05:34:49.478Z,9.65
2022-12-17T05:37:53.336Z,9.67
2022-12-17T05:44:01.814Z,10.40
2022-12-17T05:47:05.727Z,10.87
2022-12-17T05:50:09.616Z,9.40
2022-12-17T05:53:20.192Z,9.67
2022-12-17T05:56:23.860Z,11.33
2022-12-17T05:59:27.830Z,8.85
2022-12-17T06:02:31.761Z,10.48
2022-12-17T06:05:35.823Z,9.90
2022-12-17T06:08:39.983Z,9.33
2022-12-17T06:11:44.295Z,8.27
2022-12-17T06:14:48.510Z,17.83
2022-12-17T06:17:52.740Z,16.27
2022-12-17T06:20:57.026Z,9.37
2022-12-17T06:24:01.050Z,12.47
2022-12-17T06:27:05.229Z,10.07
2022-12-17T06:33:24.802Z,22.80
2022-12-17T06:36:28.828Z,13.33
2022-12-17T06:39:32.682Z,13.80
2022-12-17T06:42:36.379Z,17.95
2022-12-17T06:45:40.266Z,16.10
2022-12-17T06:48:44.252Z,18.33
2022-12-17T06:54:51.936Z,17.50
2022-12-17T07:01:01.454Z,18.90
2022-12-17T07:04:05.182Z,18.90
2022-12-17T07:10:14.521Z,19.75
2022-12-17T07:13:26.386Z,21.10
2022-12-17T07:16:30.216Z,18.57
2022-12-17T07:22:38.406Z,17.98
2022-12-17T07:25:45.968Z,15.27
2022-12-17T07:29:00.267Z,14.37
2022-12-17T07:32:07.212Z,15.85
2022-12-17T07:35:11.157Z,15.20
2022-12-17T07:38:22.659Z,15.40
2022-12-17T07:41:26.353Z,16.77
2022-12-17T07:44:30.501Z,14.30
2022-12-17T07:47:34.742Z,15.93
2022-12-17T07:50:38.706Z,19.13
2022-12-17T07:53:42.835Z,18.50
2022-12-17T07:57:00.394Z,17.80
2022-12-17T08:00:05.146Z,16.00
2022-12-17T08:06:16.536Z,14.55
2022-12-17T08:09:20.288Z,18.97
2022-12-17T08:15:28.698Z,19.00
2022-12-17T08:18:32.795Z,16.80
2022-12-17T08:21:37.074Z,21.90
2022-12-17T08:24:44.989Z,22.77
2022-12-17T08:27:49.249Z,17.83
2022-12-17T08:30:53.318Z,16.70
2022-12-17T08:33:57.019Z,16.30
2022-12-17T08:40:06.209Z,18.90
2022-12-17T08:43:16.158Z,15.13
2022-12-17T08:46:20.172Z,17.77
2022-12-17T08:49:24.429Z,18.77
2022-12-17T08:55:34.716Z,16.67
2022-12-17T08:58:38.934Z,19.47
2022-12-17T09:01:43.326Z,23.10
2022-12-17T09:04:47.257Z,19.87
2022-12-17T09:10:55.112Z,20.73
2022-12-17T09:13:59.992Z,16.27
2022-12-17T09:17:04.009Z,20.10
2022-12-17T09:26:16.716Z,22.65
2022-12-17T09:29:20.626Z,23.73
2022-12-17T09:32:24.535Z,18.80
2022-12-17T09:35:28.935Z,17.50
2022-12-17T09:38:33.558Z,15.37
2022-12-17T09:41:46.910Z,19.33
2022-12-17T09:45:12.172Z,18.13
2022-12-17T09:48:34.927Z,18.83
2022-12-17T09:51:45.535Z,15.80
2022-12-17T09:55:01.382Z,20.27
2022-12-17T09:58:07.958Z,16.70
2022-12-17T10:01:12.575Z,16.57
2022-12-17T10:04:17.616Z,17.07
2022-12-17T10:07:22.722Z,15.63
2022-12-17T10:10:52.837Z,17.20
2022-12-17T10:13:57.564Z,19.80
2022-12-17T10:17:22.347Z,20.30
2022-12-17T10:21:05.922Z,18.67
2022-12-17T10:24:27.210Z,21.33
2022-12-17T10:27:36.062Z,20.90
2022-12-17T10:30:39.911Z,20.20
2022-12-17T10:33:43.829Z,21.40
2022-12-17T10:36:48.217Z,18.70
2022-12-17T10:39:52.462Z,23.40
2022-12-17T10:42:58.236Z,21.03
2022-12-17T10:46:13.043Z,20.87
2022-12-17T10:49:43.804Z,22.40
2022-12-17T10:52:50.330Z,22.00
2022-12-17T10:55:54.763Z,21.43
2022-12-17T10:59:07.946Z,22.70
2022-12-17T11:02:17.106Z,20.40
2022-12-17T11:05:22.252Z,21.57
2022-12-17T11:08:27.744Z,22.00
2022-12-17T11:11:33.645Z,37.23
2022-12-17T11:14:37.444Z,26.97
2022-12-17T11:17:41.411Z,27.83
2022-12-17T11:21:00.975Z,27.27
2022-12-17T11:24:08.261Z,25.93
2022-12-17T11:27:14.879Z,21.17
2022-12-17T11:30:18.982Z,22.03
2022-12-17T11:33:36.691Z,22.73
2022-12-17T11:36:49.426Z,21.33
2022-12-17T11:40:08.501Z,23.20
2022-12-17T11:43:21.587Z,23.90
2022-12-17T11:46:25.589Z,19.77
2022-12-17T11:52:56.803Z,22.27
2022-12-17T11:56:03.844Z,20.33
2022-12-17T12:02:01.063Z,23.00
2022-12-17T12:05:17.136Z,28.70
2022-12-17T12:08:49.922Z,19.90
2022-12-17T12:12:04.583Z,19.60
2022-12-17T12:15:32.179Z,20.73
2022-12-17T12:18:52.020Z,18.30
2022-12-17T12:22:02.476Z,17.70
2022-12-17T12:25:17.306Z,19.90
2022-12-17T12:29:03.578Z,21.63
2022-12-17T12:32:40.310Z,16.33
2022-12-17T12:35:47.359Z,14.80
2022-12-17T12:38:58.659Z,18.73
2022-12-17T12:42:47.384Z,18.17
2022-12-17T12:46:11.475Z,13.77
2022-12-17T12:49:15.623Z,13.57
2022-12-17T12:52:20.169Z,15.03
2022-12-17T12:55:24.672Z,16.30
2022-12-17T12:58:49.956Z,19.57
2022-12-17T13:01:55.943Z,14.27
2022-12-17T13:05:18.325Z,16.47
2022-12-17T13:08:24.563Z,17.43
2022-12-17T13:11:27.292Z,13.30
2022-12-17T13:14:30.653Z,17.42
2022-12-17T13:17:18.762Z,11.65
2022-12-17T13:20:38.947Z,16.27
2022-12-17T13:23:36.276Z,13.43
2022-12-17T13:26:39.765Z,16.37
2022-12-17T13:32:42.440Z,15.73
2022-12-17T13:35:37.105Z,15.57
2022-12-17T13:38:53.891Z,15.50
2022-12-17T13:41:39.736Z,15.47
2022-12-17T13:44:31.534Z,16.23
2022-12-17T13:47:26.494Z,15.03
2022-12-17T13:50:35.595Z,14.67
2022-12-17T13:53:21.805Z,14.00
2022-12-17T13:56:10.533Z,14.57
2022-12-17T13:58:58.056Z,11.07
2022-12-17T14:01:46.931Z,12.63
2022-12-17T14:04:32.909Z,12.47
2022-12-17T14:07:19.149Z,13.67
2022-12-17T14:10:06.454Z,15.90
2022-12-17T14:12:51.916Z,15.37
2022-12-17T14:15:37.552Z,15.50
2022-12-17T14:18:23.275Z,13.90
2022-12-17T14:21:10.017Z,11.63
2022-12-17T14:23:56.863Z,11.80
2022-12-17T14:26:54.974Z,12.33
2022-12-17T14:29:49.483Z,12.90
2022-12-17T14:32:36.543Z,15.33
2022-12-17T14:35:35.684Z,14.37
2022-12-17T14:38:37.352Z,15.33
2022-12-17T14:41:43.323Z,30.33
2022-12-17T14:44:30.509Z,121.73
2022-12-17T14:47:30.888Z,221.03
2022-12-17T14:50:32.656Z,266.40
2022-12-17T14:53:27.284Z,234.57
2022-12-17T14:56:23.512Z,212.30
2022-12-17T14:59:25.796Z,187.83
2022-12-17T15:02:24.162Z,170.40
2022-12-17T15:05:15.205Z,165.57
2022-12-17T15:08:00.565Z,167.27
2022-12-17T15:10:45.937Z,174.33
2022-12-17T15:13:32.255Z,168.53
2022-12-17T15:16:18.564Z,167.23
2022-12-17T15:19:03.810Z,156.57
2022-12-17T15:21:49.153Z,152.03
2022-12-17T15:24:34.362Z,146.80
2022-12-17T15:27:19.916Z,142.57
2022-12-17T15:30:06.223Z,161.30
2022-12-17T15:32:51.840Z,159.90
2022-12-17T15:35:38.166Z,153.97
2022-12-17T15:38:23.776Z,152.90
2022-12-17T15:41:27.790Z,149.40
2022-12-17T15:44:13.737Z,139.07
2022-12-17T15:46:59.584Z,145.70
2022-12-17T15:49:45.415Z,137.57
2022-12-17T15:52:31.551Z,135.93
2022-12-17T15:55:16.996Z,126.60
2022-12-17T15:58:02.467Z,132.10
2022-12-17T16:00:48.020Z,126.77
2022-12-17T16:03:33.833Z,129.07
2022-12-17T16:06:19.617Z,124.60
2022-12-17T16:09:05.114Z,121.50
2022-12-17T16:11:55.083Z,114.80
2022-12-17T16:14:40.885Z,114.97
2022-12-17T16:17:26.391Z,119.50
2022-12-17T16:20:12.366Z,113.10
2022-12-17T16:22:59.213Z,117.23
2022-12-17T16:25:44.766Z,110.00
2022-12-17T16:28:31.642Z,102.60
2022-12-17T16:31:17.564Z,104.13
2022-12-17T16:34:03.284Z,100.93
2022-12-17T16:36:48.704Z,100.60
2022-12-17T16:39:33.996Z,101.50
2022-12-17T16:42:20.971Z,101.07
2022-12-17T16:45:07.451Z,101.73
2022-12-17T16:47:53.791Z,95.13
2022-12-17T16:50:41.353Z,97.23
2022-12-17T16:53:26.494Z,92.20
2022-12-17T16:56:21.465Z,91.83
2022-12-17T16:59:08.337Z,86.07
2022-12-17T17:01:54.068Z,85.97
2022-12-17T17:04:39.689Z,82.80
2022-12-17T17:07:25.086Z,76.83
2022-12-17T17:10:10.444Z,82.17
2022-12-17T17:12:56.236Z,73.93
2022-12-17T17:15:41.606Z,70.87
2022-12-17T17:18:29.619Z,75.77
2022-12-17T17:21:34.331Z,69.60
2022-12-17T17:24:22.428Z,66.80
2022-12-17T17:27:07.799Z,64.87
2022-12-17T17:29:54.497Z,64.17
2022-12-17T17:32:41.408Z,61.67
2022-12-17T17:35:26.713Z,58.27
2022-12-17T17:38:11.876Z,62.83
2022-12-17T17:40:58.087Z,61.57
2022-12-17T17:43:43.907Z,65.90
2022-12-17T17:46:30.791Z,61.37
2022-12-17T17:49:17.069Z,64.23
2022-12-17T17:52:11.437Z,65.40
2022-12-17T17:54:57.599Z,69.80
2022-12-17T17:57:42.838Z,62.07
2022-12-17T18:00:28.169Z,66.83
2022-12-17T18:03:13.518Z,60.47
2022-12-17T18:06:03.600Z,57.10
2022-12-17T18:08:49.101Z,57.80
2022-12-17T18:11:35.272Z,67.47
2022-12-17T18:14:20.741Z,62.37
2022-12-17T18:17:06.262Z,66.20
2022-12-17T18:19:51.611Z,59.27
2022-12-17T18:22:37.424Z,75.53
2022-12-17T18:25:22.703Z,61.00
2022-12-17T18:28:07.864Z,64.60
2022-12-17T18:30:53.008Z,63.10
2022-12-17T18:33:40.476Z,59.50
2022-12-17T18:36:32.087Z,53.70
2022-12-17T18:39:23.473Z,56.27
2022-12-17T18:42:27.662Z,52.80
2022-12-17T18:45:13.227Z,50.57
2022-12-17T18:47:58.807Z,53.17
2022-12-17T18:50:44.064Z,46.07
2022-12-17T18:53:29.862Z,45.83
2022-12-17T18:56:31.725Z,46.23
2022-12-17T18:59:28.429Z,47.33
2022-12-17T19:02:14.975Z,43.47
2022-12-17T19:05:00.781Z,39.07
2022-12-17T19:07:46.166Z,47.47
2022-12-17T19:10:31.680Z,41.17
2022-12-17T19:13:16.895Z,40.73
2022-12-17T19:16:28.483Z,39.27
2022-12-17T19:19:13.828Z,38.20
2022-12-17T19:22:02.305Z,37.23
2022-12-17T19:24:47.714Z,39.83
2022-12-17T19:27:33.158Z,32.30
2022-12-17T19:30:18.608Z,39.97
2022-12-17T19:33:06.825Z,33.47
2022-12-17T19:36:05.878Z,36.17
2022-12-17T19:38:55.707Z,36.37
2022-12-17T19:41:41.355Z,36.87
2022-12-17T19:44:27.095Z,35.50
2022-12-17T19:47:12.417Z,37.20
2022-12-17T19:49:57.743Z,31.57
2022-12-17T19:52:43.572Z,30.33
2022-12-17T19:55:28.989Z,34.43
2022-12-17T19:58:14.556Z,33.23
2022-12-17T20:01:18.138Z,32.60
2022-12-17T20:04:04.045Z,30.98
2022-12-17T20:06:49.607Z,29.00
2022-12-17T20:09:34.950Z,32.43
2022-12-17T20:12:20.290Z,29.50
2022-12-17T20:15:06.238Z,29.27
2022-12-17T20:17:51.963Z,24.97
2022-12-17T20:20:37.113Z,27.00
2022-12-17T20:23:22.345Z,27.93
2022-12-17T20:26:11.582Z,26.87
2022-12-17T20:28:59.181Z,26.30
2022-12-17T20:31:49.832Z,28.17
2022-12-17T20:34:35.827Z,29.23
2022-12-17T20:37:21.164Z,28.50
2022-12-17T20:40:07.313Z,28.33
2022-12-17T20:42:52.979Z,27.00
2022-12-17T20:45:38.222Z,26.60
2022-12-17T20:48:23.995Z,31.43
2022-12-17T20:51:21.758Z,27.40
2022-12-17T20:54:08.470Z,24.77
2022-12-17T20:56:53.941Z,27.40
2022-12-17T20:59:39.206Z,26.77
2022-12-17T21:02:24.569Z,26.00
2022-12-17T21:05:12.007Z,25.13
2022-12-17T21:07:57.408Z,27.10
2022-12-17T21:10:42.625Z,26.47
2022-12-17T21:13:31.363Z,26.63
2022-12-17T21:16:22.696Z,25.27
2022-12-17T21:19:11.281Z,25.30
2022-12-17T21:21:56.849Z,25.43
2022-12-17T21:24:42.135Z,21.73
2022-12-17T21:27:28.597Z,23.30
2022-12-17T21:30:17.103Z,22.40
2022-12-17T21:33:02.505Z,21.37
2022-12-17T21:35:48.487Z,20.70
2022-12-17T21:38:34.304Z,24.60
2022-12-17T21:41:26.031Z,26.87
2022-12-17T21:44:13.592Z,20.57
2022-12-17T21:47:00.995Z,33.03
2022-12-17T21:49:46.371Z,21.50
2022-12-17T21:52:31.931Z,20.07
2022-12-17T21:55:17.589Z,26.90
2022-12-17T21:58:03.448Z,20.43
2022-12-17T22:00:48.657Z,19.77
2022-12-17T22:03:34.010Z,20.27
2022-12-17T22:06:21.292Z,21.37
2022-12-17T22:09:13.977Z,21.33
2022-12-17T22:12:22.449Z,17.37
2022-12-17T22:15:08.601Z,16.13
2022-12-17T22:17:57.972Z,17.13
2022-12-17T22:20:43.955Z,17.23
2022-12-17T22:23:29.676Z,19.50
2022-12-17T22:26:17.297Z,18.47
2022-12-17T22:29:03.263Z,16.33
2022-12-17T22:32:07.128Z,17.63
2022-12-17T22:35:43.853Z,16.90
2022-12-17T22:40:59.034Z,18.63
2022-12-17T22:44:39.147Z,18.03
2022-12-17T22:44:44.261Z,17.93
2022-12-17T22:47:16.378Z,17.53
2022-12-17T22:50:01.591Z,16.67
2022-12-17T22:52:47.233Z,15.67
2022-12-17T22:55:33.974Z,16.00
2022-12-17T22:58:20.390Z,15.40
2022-12-17T23:01:05.717Z,14.87
2022-12-17T23:03:55.536Z,13.93
2022-12-17T23:06:42.604Z,16.07
2022-12-17T23:09:28.048Z,15.63
2022-12-17T23:12:31.852Z,12.63
2022-12-17T23:15:18.808Z,15.30
2022-12-17T23:18:06.861Z,14.10
2022-12-17T23:20:53.403Z,15.40
2022-12-17T23:23:39.251Z,15.43
2022-12-17T23:26:34.751Z,11.73
2022-12-17T23:29:20.344Z,14.33
2022-12-17T23:32:05.849Z,14.50
2022-12-17T23:34:51.428Z,13.97
2022-12-17T23:37:39.953Z,15.17
2022-12-17T23:40:25.910Z,14.97
2022-12-17T23:43:15.884Z,14.10
2022-12-17T23:46:03.719Z,14.23
2022-12-17T23:48:51.142Z,11.30
2022-12-17T23:51:36.589Z,13.30
2022-12-17T23:54:21.883Z,13.40
2022-12-17T23:57:07.147Z,12.10
2022-12-17T23:59:52.296Z,13.57
